sensor_id;sensor_type;location;lat;lon;timestamp;temperature;humidity
37310;DHT22;23195;47.744;7.358;2023-05-02T09:26:39;19.80;92.10
37310;DHT22;23195;47.744;7.358;2023-05-02T09:29:07;19.60;92.10
37310;DHT22;23195;47.744;7.358;2023-05-02T09:31:34;19.60;91.90
37310;DHT22;23195;47.744;7.358;2023-05-02T09:34:16;19.50;91.70
37310;DHT22;23195;47.744;7.358;2023-05-02T09:36:46;19.50;92.20
37310;DHT22;23195;47.744;7.358;2023-05-02T09:39:14;19.30;92.20
37310;DHT22;23195;47.744;7.358;2023-05-02T09:41:49;19.10;92.80
37310;DHT22;23195;47.744;7.358;2023-05-02T09:44:25;18.80;93.10
37310;DHT22;23195;47.744;7.358;2023-05-02T09:46:55;19.10;93.10
37310;DHT22;23195;47.744;7.358;2023-05-02T09:49:45;19.10;93.30
37310;DHT22;23195;47.744;7.358;2023-05-02T09:52:18;18.50;93.40
37310;DHT22;23195;47.744;7.358;2023-05-02T09:54:49;18.50;94.00
37310;DHT22;23195;47.744;7.358;2023-05-02T09:57:38;18.30;94.20
37310;DHT22;23195;47.744;7.358;2023-05-02T10:00:09;18.20;94.40
37310;DHT22;23195;47.744;7.358;2023-05-02T10:02:35;18.20;94.60
37310;DHT22;23195;47.744;7.358;2023-05-02T10:05:02;18.20;94.50
37310;DHT22;23195;47.744;7.358;2023-05-02T10:07:33;18.20;94.60
37310;DHT22;23195;47.744;7.358;2023-05-02T10:10:13;18.50;93.60
37310;DHT22;23195;47.744;7.358;2023-05-02T10:12:54;17.80;93.30
37310;DHT22;23195;47.744;7.358;2023-05-02T10:15:21;18.50;92.90
37310;DHT22;23195;47.744;7.358;2023-05-02T10:17:50;18.40;93.70
37310;DHT22;23195;47.744;7.358;2023-05-02T10:20:22;18.40;93.10
37310;DHT22;23195;47.744;7.358;2023-05-02T10:22:51;18.50;92.40
37310;DHT22;23195;47.744;7.358;2023-05-02T10:25:18;18.60;93.20
37310;DHT22;23195;47.744;7.358;2023-05-02T10:27:44;18.60;92.60
37310;DHT22;23195;47.744;7.358;2023-05-02T10:30:12;18.50;92.40
37310;DHT22;23195;47.744;7.358;2023-05-02T10:32:37;18.50;92.50
37310;DHT22;23195;47.744;7.358;2023-05-02T10:35:04;18.50;92.80
37310;DHT22;23195;47.744;7.358;2023-05-02T10:37:33;18.60;92.50
37310;DHT22;23195;47.744;7.358;2023-05-02T10:39:59;18.50;92.70
37310;DHT22;23195;47.744;7.358;2023-05-02T10:42:29;18.40;92.90
37310;DHT22;23195;47.744;7.358;2023-05-02T10:44:55;17.80;93.60
37310;DHT22;23195;47.744;7.358;2023-05-02T10:47:25;18.10;92.20
37310;DHT22;23195;47.744;7.358;2023-05-02T10:49:59;18.30;92.60
37310;DHT22;23195;47.744;7.358;2023-05-02T10:52:38;18.40;92.90
37310;DHT22;23195;47.744;7.358;2023-05-02T10:55:21;18.30;92.40
37310;DHT22;23195;47.744;7.358;2023-05-02T11:00:28;17.90;91.80
37310;DHT22;23195;47.744;7.358;2023-05-02T11:02:55;18.40;91.90
37310;DHT22;23195;47.744;7.358;2023-05-02T11:05:24;18.20;92.40
37310;DHT22;23195;47.744;7.358;2023-05-02T11:13:58;18.50;91.20
37310;DHT22;23195;47.744;7.358;2023-05-02T11:22:39;18.50;91.80
37310;DHT22;23195;47.744;7.358;2023-05-02T11:25:33;18.50;91.70
37310;DHT22;23195;47.744;7.358;2023-05-02T11:28:40;18.10;91.40
37310;DHT22;23195;47.744;7.358;2023-05-02T11:33:59;17.90;92.30
37310;DHT22;23195;47.744;7.358;2023-05-02T11:36:37;18.20;92.10
37310;DHT22;23195;47.744;7.358;2023-05-02T11:39:03;18.40;90.80
37310;DHT22;23195;47.744;7.358;2023-05-02T11:41:44;18.70;90.40
37310;DHT22;23195;47.744;7.358;2023-05-02T11:44:15;18.90;90.30
37310;DHT22;23195;47.744;7.358;2023-05-02T11:46:42;18.60;88.50
37310;DHT22;23195;47.744;7.358;2023-05-02T11:49:09;18.60;90.30
37310;DHT22;23195;47.744;7.358;2023-05-02T11:51:42;18.70;88.90
37310;DHT22;23195;47.744;7.358;2023-05-02T11:54:07;18.70;86.80
37310;DHT22;23195;47.744;7.358;2023-05-02T11:56:34;18.80;89.90
37310;DHT22;23195;47.744;7.358;2023-05-02T11:59:01;18.90;89.70
37310;DHT22;23195;47.744;7.358;2023-05-02T12:01:30;19.10;90.00
37310;DHT22;23195;47.744;7.358;2023-05-02T12:04:04;19.00;88.20
37310;DHT22;23195;47.744;7.358;2023-05-02T12:06:32;18.90;88.20
37310;DHT22;23195;47.744;7.358;2023-05-02T12:09:13;19.00;87.50
37310;DHT22;23195;47.744;7.358;2023-05-02T12:11:41;19.00;88.20
37310;DHT22;23195;47.744;7.358;2023-05-02T12:14:10;19.10;88.10
37310;DHT22;23195;47.744;7.358;2023-05-02T12:16:36;19.00;88.20
37310;DHT22;23195;47.744;7.358;2023-05-02T12:19:02;19.00;87.90
37310;DHT22;23195;47.744;7.358;2023-05-02T12:21:29;19.10;87.20
37310;DHT22;23195;47.744;7.358;2023-05-02T12:23:57;18.70;85.40
37310;DHT22;23195;47.744;7.358;2023-05-02T12:26:24;19.00;86.30
37310;DHT22;23195;47.744;7.358;2023-05-02T12:28:54;19.00;86.70
37310;DHT22;23195;47.744;7.358;2023-05-02T12:31:21;18.90;87.00
37310;DHT22;23195;47.744;7.358;2023-05-02T12:33:47;19.20;87.00
37310;DHT22;23195;47.744;7.358;2023-05-02T12:36:14;19.20;87.30
37310;DHT22;23195;47.744;7.358;2023-05-02T12:38:47;19.10;87.70
37310;DHT22;23195;47.744;7.358;2023-05-02T12:41:13;19.00;88.10
37310;DHT22;23195;47.744;7.358;2023-05-02T12:43:46;19.10;85.90
37310;DHT22;23195;47.744;7.358;2023-05-02T12:46:12;19.00;84.50
37310;DHT22;23195;47.744;7.358;2023-05-02T12:48:38;19.10;82.50
37310;DHT22;23195;47.744;7.358;2023-05-02T12:51:04;19.20;80.30
37310;DHT22;23195;47.744;7.358;2023-05-02T12:53:42;19.00;81.90
37310;DHT22;23195;47.744;7.358;2023-05-02T12:56:10;19.20;82.40
37310;DHT22;23195;47.744;7.358;2023-05-02T12:58:50;19.30;82.10
37310;DHT22;23195;47.744;7.358;2023-05-02T13:01:16;19.20;81.70
37310;DHT22;23195;47.744;7.358;2023-05-02T13:03:42;19.40;82.30
37310;DHT22;23195;47.744;7.358;2023-05-02T13:06:08;19.50;81.60
37310;DHT22;23195;47.744;7.358;2023-05-02T13:08:36;19.60;82.60
37310;DHT22;23195;47.744;7.358;2023-05-02T13:11:02;19.60;78.50
37310;DHT22;23195;47.744;7.358;2023-05-02T13:13:29;19.60;77.80
37310;DHT22;23195;47.744;7.358;2023-05-02T13:15:55;19.40;78.80
37310;DHT22;23195;47.744;7.358;2023-05-02T13:18:23;19.50;80.00
37310;DHT22;23195;47.744;7.358;2023-05-02T13:20:49;19.40;80.90
37310;DHT22;23195;47.744;7.358;2023-05-02T13:23:15;19.40;79.10
37310;DHT22;23195;47.744;7.358;2023-05-02T13:25:41;19.40;79.10
37310;DHT22;23195;47.744;7.358;2023-05-02T13:28:07;19.50;79.30
37310;DHT22;23195;47.744;7.358;2023-05-02T13:30:33;19.50;80.30
37310;DHT22;23195;47.744;7.358;2023-05-02T13:32:58;19.70;80.60
37310;DHT22;23195;47.744;7.358;2023-05-02T13:35:25;19.70;80.00
37310;DHT22;23195;47.744;7.358;2023-05-02T13:37:51;19.70;79.80
37310;DHT22;23195;47.744;7.358;2023-05-02T13:40:16;19.60;78.00
37310;DHT22;23195;47.744;7.358;2023-05-02T13:42:42;19.70;79.20
37310;DHT22;23195;47.744;7.358;2023-05-02T13:45:08;19.70;79.20
37310;DHT22;23195;47.744;7.358;2023-05-02T13:47:34;19.80;80.80
37310;DHT22;23195;47.744;7.358;2023-05-02T13:50:00;19.80;80.60
37310;DHT22;23195;47.744;7.358;2023-05-02T13:52:26;19.80;80.00
37310;DHT22;23195;47.744;7.358;2023-05-02T13:54:51;19.70;80.00
37310;DHT22;23195;47.744;7.358;2023-05-02T13:57:17;19.20;80.90
37310;DHT22;23195;47.744;7.358;2023-05-02T13:59:43;19.10;81.90
37310;DHT22;23195;47.744;7.358;2023-05-02T14:02:09;19.10;80.60
37310;DHT22;23195;47.744;7.358;2023-05-02T14:04:35;19.20;81.20
37310;DHT22;23195;47.744;7.358;2023-05-02T14:07:00;19.40;82.00
37310;DHT22;23195;47.744;7.358;2023-05-02T14:09:26;19.30;82.20
37310;DHT22;23195;47.744;7.358;2023-05-02T14:11:52;19.40;80.00
37310;DHT22;23195;47.744;7.358;2023-05-02T14:14:18;19.20;79.50
37310;DHT22;23195;47.744;7.358;2023-05-02T14:16:44;19.50;80.60
37310;DHT22;23195;47.744;7.358;2023-05-02T14:19:09;19.50;81.40
37310;DHT22;23195;47.744;7.358;2023-05-02T14:21:35;19.40;81.40
37310;DHT22;23195;47.744;7.358;2023-05-02T14:24:04;19.40;79.20
37310;DHT22;23195;47.744;7.358;2023-05-02T14:26:31;19.50;79.30
37310;DHT22;23195;47.744;7.358;2023-05-02T14:28:56;19.50;79.90
37310;DHT22;23195;47.744;7.358;2023-05-02T14:31:26;19.60;80.20
37310;DHT22;23195;47.744;7.358;2023-05-02T14:33:52;19.80;80.50
37310;DHT22;23195;47.744;7.358;2023-05-02T14:36:17;19.90;80.60
37310;DHT22;23195;47.744;7.358;2023-05-02T14:38:43;19.80;77.50
37310;DHT22;23195;47.744;7.358;2023-05-02T14:41:09;19.40;79.40
37310;DHT22;23195;47.744;7.358;2023-05-02T14:43:35;19.10;79.20
37310;DHT22;23195;47.744;7.358;2023-05-02T14:46:01;19.10;79.20
37310;DHT22;23195;47.744;7.358;2023-05-02T14:48:28;19.30;80.30
37310;DHT22;23195;47.744;7.358;2023-05-02T14:50:54;19.40;79.40
37310;DHT22;23195;47.744;7.358;2023-05-02T14:53:21;19.50;76.30
37310;DHT22;23195;47.744;7.358;2023-05-02T14:55:47;19.60;78.60
37310;DHT22;23195;47.744;7.358;2023-05-02T14:58:13;19.70;80.40
37310;DHT22;23195;47.744;7.358;2023-05-02T15:00:45;19.50;80.60
37310;DHT22;23195;47.744;7.358;2023-05-02T15:03:13;19.40;81.00
37310;DHT22;23195;47.744;7.358;2023-05-02T15:05:39;19.30;82.00
37310;DHT22;23195;47.744;7.358;2023-05-02T15:08:06;19.30;81.80
37310;DHT22;23195;47.744;7.358;2023-05-02T15:10:38;19.20;82.40
37310;DHT22;23195;47.744;7.358;2023-05-02T15:13:03;19.30;82.40
37310;DHT22;23195;47.744;7.358;2023-05-02T15:15:30;19.40;82.60
37310;DHT22;23195;47.744;7.358;2023-05-02T15:17:56;19.50;83.20
37310;DHT22;23195;47.744;7.358;2023-05-02T15:20:22;19.50;82.70
37310;DHT22;23195;47.744;7.358;2023-05-02T15:22:47;19.50;82.00
37310;DHT22;23195;47.744;7.358;2023-05-02T15:25:13;19.50;82.20
37310;DHT22;23195;47.744;7.358;2023-05-02T15:27:39;19.60;82.10
37310;DHT22;23195;47.744;7.358;2023-05-02T15:30:06;19.60;82.90
37310;DHT22;23195;47.744;7.358;2023-05-02T15:32:32;19.50;85.00
37310;DHT22;23195;47.744;7.358;2023-05-02T15:34:58;19.40;86.10
37310;DHT22;23195;47.744;7.358;2023-05-02T15:37:24;19.30;86.40
37310;DHT22;23195;47.744;7.358;2023-05-02T15:39:49;19.20;86.10
37310;DHT22;23195;47.744;7.358;2023-05-02T15:42:16;19.20;85.20
37310;DHT22;23195;47.744;7.358;2023-05-02T15:44:42;19.30;86.40
37310;DHT22;23195;47.744;7.358;2023-05-02T15:47:07;19.40;86.10
37310;DHT22;23195;47.744;7.358;2023-05-02T15:49:33;19.40;85.50
37310;DHT22;23195;47.744;7.358;2023-05-02T15:51:59;19.20;86.20
37310;DHT22;23195;47.744;7.358;2023-05-02T15:54:25;19.10;87.60
37310;DHT22;23195;47.744;7.358;2023-05-02T15:56:51;19.10;87.30
37310;DHT22;23195;47.744;7.358;2023-05-02T15:59:17;19.10;88.00
37310;DHT22;23195;47.744;7.358;2023-05-02T16:01:43;19.20;88.20
37310;DHT22;23195;47.744;7.358;2023-05-02T16:04:09;19.20;88.40
37310;DHT22;23195;47.744;7.358;2023-05-02T16:06:35;19.10;87.60
37310;DHT22;23195;47.744;7.358;2023-05-02T16:09:02;19.00;87.70
37310;DHT22;23195;47.744;7.358;2023-05-02T16:11:28;18.90;87.80
37310;DHT22;23195;47.744;7.358;2023-05-02T16:13:54;18.90;87.10
37310;DHT22;23195;47.744;7.358;2023-05-02T16:16:20;18.80;86.60
37310;DHT22;23195;47.744;7.358;2023-05-02T16:18:56;18.70;86.70
37310;DHT22;23195;47.744;7.358;2023-05-02T16:21:22;18.70;86.20
37310;DHT22;23195;47.744;7.358;2023-05-02T16:23:47;18.70;86.40
37310;DHT22;23195;47.744;7.358;2023-05-02T16:26:13;18.80;85.50
37310;DHT22;23195;47.744;7.358;2023-05-02T16:28:39;18.80;85.10
37310;DHT22;23195;47.744;7.358;2023-05-02T16:31:06;18.70;84.40
37310;DHT22;23195;47.744;7.358;2023-05-02T16:33:38;18.60;84.70
37310;DHT22;23195;47.744;7.358;2023-05-02T16:36:05;18.50;84.40
37310;DHT22;23195;47.744;7.358;2023-05-02T16:38:34;18.40;85.20
37310;DHT22;23195;47.744;7.358;2023-05-02T16:41:04;18.50;85.30
37310;DHT22;23195;47.744;7.358;2023-05-02T16:43:31;18.50;86.10
37310;DHT22;23195;47.744;7.358;2023-05-02T16:46:06;18.60;85.70
37310;DHT22;23195;47.744;7.358;2023-05-02T16:48:32;18.60;86.90
37310;DHT22;23195;47.744;7.358;2023-05-02T16:50:59;18.60;88.50
37310;DHT22;23195;47.744;7.358;2023-05-02T16:53:25;18.50;89.80
37310;DHT22;23195;47.744;7.358;2023-05-02T16:55:52;18.30;90.80
37310;DHT22;23195;47.744;7.358;2023-05-02T16:58:18;18.40;90.90
37310;DHT22;23195;47.744;7.358;2023-05-02T17:00:44;18.30;90.80
37310;DHT22;23195;47.744;7.358;2023-05-02T17:03:10;18.20;90.80
37310;DHT22;23195;47.744;7.358;2023-05-02T17:05:36;18.10;90.90
37310;DHT22;23195;47.744;7.358;2023-05-02T17:08:02;18.10;91.10
37310;DHT22;23195;47.744;7.358;2023-05-02T17:10:28;18.00;91.10
37310;DHT22;23195;47.744;7.358;2023-05-02T17:12:54;18.10;91.30
37310;DHT22;23195;47.744;7.358;2023-05-02T17:15:21;18.00;91.10
37310;DHT22;23195;47.744;7.358;2023-05-02T17:17:55;18.10;91.00
37310;DHT22;23195;47.744;7.358;2023-05-02T17:20:20;18.00;91.10
37310;DHT22;23195;47.744;7.358;2023-05-02T17:22:46;18.00;91.40
37310;DHT22;23195;47.744;7.358;2023-05-02T17:25:12;17.90;91.20
37310;DHT22;23195;47.744;7.358;2023-05-02T17:27:37;17.80;91.50
37310;DHT22;23195;47.744;7.358;2023-05-02T17:30:04;17.70;91.70
37310;DHT22;23195;47.744;7.358;2023-05-02T17:32:29;17.90;91.80
37310;DHT22;23195;47.744;7.358;2023-05-02T17:34:55;17.50;91.90
37310;DHT22;23195;47.744;7.358;2023-05-02T17:37:21;17.40;92.00
37310;DHT22;23195;47.744;7.358;2023-05-02T17:39:47;17.30;91.90
37310;DHT22;23195;47.744;7.358;2023-05-02T17:42:13;17.20;92.20
37310;DHT22;23195;47.744;7.358;2023-05-02T17:44:39;17.20;92.00
37310;DHT22;23195;47.744;7.358;2023-05-02T17:47:07;17.10;91.90
37310;DHT22;23195;47.744;7.358;2023-05-02T17:49:33;17.10;91.80
37310;DHT22;23195;47.744;7.358;2023-05-02T17:52:00;17.10;91.90
37310;DHT22;23195;47.744;7.358;2023-05-02T17:54:28;17.10;92.10
37310;DHT22;23195;47.744;7.358;2023-05-02T17:56:54;16.90;92.10
37310;DHT22;23195;47.744;7.358;2023-05-02T17:59:20;16.90;92.10
37310;DHT22;23195;47.744;7.358;2023-05-02T18:01:46;16.90;92.30
37310;DHT22;23195;47.744;7.358;2023-05-02T18:04:12;16.90;92.20
37310;DHT22;23195;47.744;7.358;2023-05-02T18:06:46;16.80;92.00
37310;DHT22;23195;47.744;7.358;2023-05-02T18:09:12;16.70;91.50
37310;DHT22;23195;47.744;7.358;2023-05-02T18:11:38;16.60;91.50
37310;DHT22;23195;47.744;7.358;2023-05-02T18:14:04;16.60;91.50
37310;DHT22;23195;47.744;7.358;2023-05-02T18:16:30;16.60;91.40
37310;DHT22;23195;47.744;7.358;2023-05-02T18:18:59;16.60;91.20
37310;DHT22;23195;47.744;7.358;2023-05-02T18:21:25;16.50;91.10
37310;DHT22;23195;47.744;7.358;2023-05-02T18:23:51;16.40;90.90
37310;DHT22;23195;47.744;7.358;2023-05-02T18:26:17;16.40;91.10
37310;DHT22;23195;47.744;7.358;2023-05-02T18:28:42;16.30;91.30
37310;DHT22;23195;47.744;7.358;2023-05-02T18:31:17;16.20;91.20
37310;DHT22;23195;47.744;7.358;2023-05-02T18:33:43;16.20;91.40
37310;DHT22;23195;47.744;7.358;2023-05-02T18:36:10;16.10;91.50
37310;DHT22;23195;47.744;7.358;2023-05-02T18:38:35;16.00;91.60
37310;DHT22;23195;47.744;7.358;2023-05-02T18:41:02;15.90;91.80
37310;DHT22;23195;47.744;7.358;2023-05-02T18:43:28;15.80;91.90
37310;DHT22;23195;47.744;7.358;2023-05-02T18:45:54;15.80;92.00
37310;DHT22;23195;47.744;7.358;2023-05-02T18:48:20;15.80;92.40
37310;DHT22;23195;47.744;7.358;2023-05-02T18:50:46;15.70;92.60
37310;DHT22;23195;47.744;7.358;2023-05-02T18:53:12;15.70;93.10
37310;DHT22;23195;47.744;7.358;2023-05-02T18:55:39;15.60;93.20
37310;DHT22;23195;47.744;7.358;2023-05-02T18:58:05;15.50;93.70
37310;DHT22;23195;47.744;7.358;2023-05-02T19:00:30;15.40;94.10
37310;DHT22;23195;47.744;7.358;2023-05-02T19:02:57;15.30;94.40
37310;DHT22;23195;47.744;7.358;2023-05-02T19:05:26;15.20;94.90
37310;DHT22;23195;47.744;7.358;2023-05-02T19:07:51;15.20;95.30
37310;DHT22;23195;47.744;7.358;2023-05-02T19:10:17;15.10;95.70
37310;DHT22;23195;47.744;7.358;2023-05-02T19:12:45;15.10;96.10
37310;DHT22;23195;47.744;7.358;2023-05-02T19:15:11;15.00;96.60
37310;DHT22;23195;47.744;7.358;2023-05-02T19:17:36;16.10;97.30
37310;DHT22;23195;47.744;7.358;2023-05-02T19:20:03;14.80;97.40
37310;DHT22;23195;47.744;7.358;2023-05-02T19:22:29;14.70;97.80
37310;DHT22;23195;47.744;7.358;2023-05-02T19:24:56;14.70;98.10
37310;DHT22;23195;47.744;7.358;2023-05-02T19:27:22;14.70;98.50
37310;DHT22;23195;47.744;7.358;2023-05-02T19:29:52;14.60;98.90
37310;DHT22;23195;47.744;7.358;2023-05-02T19:32:20;14.50;99.20
37310;DHT22;23195;47.744;7.358;2023-05-02T19:34:46;14.40;99.40
37310;DHT22;23195;47.744;7.358;2023-05-02T19:37:12;14.40;99.70
37310;DHT22;23195;47.744;7.358;2023-05-02T19:39:38;14.40;99.80
37310;DHT22;23195;47.744;7.358;2023-05-02T19:42:04;14.40;99.70
37310;DHT22;23195;47.744;7.358;2023-05-02T19:44:30;14.40;99.90
37310;DHT22;23195;47.744;7.358;2023-05-02T19:46:55;14.40;99.90
37310;DHT22;23195;47.744;7.358;2023-05-02T19:49:21;14.30;99.90
37310;DHT22;23195;47.744;7.358;2023-05-02T19:51:47;14.30;99.90
37310;DHT22;23195;47.744;7.358;2023-05-02T19:54:13;14.30;99.90
37310;DHT22;23195;47.744;7.358;2023-05-02T19:56:39;14.20;99.90
37310;DHT22;23195;47.744;7.358;2023-05-02T19:59:07;14.20;99.90
37310;DHT22;23195;47.744;7.358;2023-05-02T20:01:33;14.20;99.90
37310;DHT22;23195;47.744;7.358;2023-05-02T20:03:59;14.00;99.90
37310;DHT22;23195;47.744;7.358;2023-05-02T20:06:25;14.10;99.90
37310;DHT22;23195;47.744;7.358;2023-05-02T20:08:52;13.90;99.90
37310;DHT22;23195;47.744;7.358;2023-05-02T20:11:18;13.90;99.90
37310;DHT22;23195;47.744;7.358;2023-05-02T20:13:44;13.90;99.90
37310;DHT22;23195;47.744;7.358;2023-05-02T20:16:12;13.80;99.90
37310;DHT22;23195;47.744;7.358;2023-05-02T20:18:37;13.70;99.90
37310;DHT22;23195;47.744;7.358;2023-05-02T20:21:06;13.70;99.90
37310;DHT22;23195;47.744;7.358;2023-05-02T20:23:32;13.60;99.90
37310;DHT22;23195;47.744;7.358;2023-05-02T20:25:58;13.70;99.90
37310;DHT22;23195;47.744;7.358;2023-05-02T20:28:24;13.50;99.90
37310;DHT22;23195;47.744;7.358;2023-05-02T20:30:50;13.50;99.90
37310;DHT22;23195;47.744;7.358;2023-05-02T20:33:16;13.40;99.90
37310;DHT22;23195;47.744;7.358;2023-05-02T20:35:51;13.30;99.90
37310;DHT22;23195;47.744;7.358;2023-05-02T20:38:17;13.30;99.90
37310;DHT22;23195;47.744;7.358;2023-05-02T20:40:44;13.20;99.90
37310;DHT22;23195;47.744;7.358;2023-05-02T20:43:10;13.10;99.90
37310;DHT22;23195;47.744;7.358;2023-05-02T20:45:37;13.10;99.90
37310;DHT22;23195;47.744;7.358;2023-05-02T20:48:04;12.50;99.90
37310;DHT22;23195;47.744;7.358;2023-05-02T20:50:30;12.90;99.90
37310;DHT22;23195;47.744;7.358;2023-05-02T20:52:56;12.90;99.90
37310;DHT22;23195;47.744;7.358;2023-05-02T20:55:23;12.90;99.90
37310;DHT22;23195;47.744;7.358;2023-05-02T20:57:48;12.90;99.90
37310;DHT22;23195;47.744;7.358;2023-05-02T21:00:18;14.20;99.90
37310;DHT22;23195;47.744;7.358;2023-05-02T21:02:44;12.90;99.90
37310;DHT22;23195;47.744;7.358;2023-05-02T21:05:10;12.80;99.90
37310;DHT22;23195;47.744;7.358;2023-05-02T21:07:36;12.80;99.90
37310;DHT22;23195;47.744;7.358;2023-05-02T21:10:02;12.80;99.90
37310;DHT22;23195;47.744;7.358;2023-05-02T21:12:29;12.80;99.90
37310;DHT22;23195;47.744;7.358;2023-05-02T21:14:55;12.70;99.90
37310;DHT22;23195;47.744;7.358;2023-05-02T21:17:20;12.60;99.90
37310;DHT22;23195;47.744;7.358;2023-05-02T21:19:46;12.60;99.90
37310;DHT22;23195;47.744;7.358;2023-05-02T21:22:12;12.50;99.90
37310;DHT22;23195;47.744;7.358;2023-05-02T21:24:38;12.40;99.90
37310;DHT22;23195;47.744;7.358;2023-05-02T21:27:03;12.40;99.90
37310;DHT22;23195;47.744;7.358;2023-05-02T21:29:29;12.30;99.90
37310;DHT22;23195;47.744;7.358;2023-05-02T21:31:55;12.40;99.90
37310;DHT22;23195;47.744;7.358;2023-05-02T21:34:21;12.40;99.90
37310;DHT22;23195;47.744;7.358;2023-05-02T21:36:47;12.30;99.90
37310;DHT22;23195;47.744;7.358;2023-05-02T21:39:12;12.40;99.90
37310;DHT22;23195;47.744;7.358;2023-05-02T21:41:39;12.30;99.90
37310;DHT22;23195;47.744;7.358;2023-05-02T21:44:05;12.20;99.90
37310;DHT22;23195;47.744;7.358;2023-05-02T21:46:30;12.20;99.90
37310;DHT22;23195;47.744;7.358;2023-05-02T21:48:57;12.20;99.90
37310;DHT22;23195;47.744;7.358;2023-05-02T21:51:23;12.00;99.90
37310;DHT22;23195;47.744;7.358;2023-05-02T21:53:49;12.00;99.90
37310;DHT22;23195;47.744;7.358;2023-05-02T21:56:15;11.50;99.90
37310;DHT22;23195;47.744;7.358;2023-05-02T21:58:41;11.90;99.90
37310;DHT22;23195;47.744;7.358;2023-05-02T22:01:06;11.90;99.90
37310;DHT22;23195;47.744;7.358;2023-05-02T22:03:32;12.00;99.90
37310;DHT22;23195;47.744;7.358;2023-05-02T22:05:59;11.30;99.90
37310;DHT22;23195;47.744;7.358;2023-05-02T22:08:30;12.00;99.90
37310;DHT22;23195;47.744;7.358;2023-05-02T22:10:56;12.00;99.90
37310;DHT22;23195;47.744;7.358;2023-05-02T22:13:23;11.90;99.90
37310;DHT22;23195;47.744;7.358;2023-05-02T22:15:49;11.90;99.90
37310;DHT22;23195;47.744;7.358;2023-05-02T22:18:16;11.90;99.90
37310;DHT22;23195;47.744;7.358;2023-05-02T22:20:43;11.90;99.90
37310;DHT22;23195;47.744;7.358;2023-05-02T22:23:10;11.80;99.90
37310;DHT22;23195;47.744;7.358;2023-05-02T22:25:39;11.70;99.90
37310;DHT22;23195;47.744;7.358;2023-05-02T22:28:06;11.70;99.90
37310;DHT22;23195;47.744;7.358;2023-05-02T22:30:35;11.70;99.90
37310;DHT22;23195;47.744;7.358;2023-05-02T22:33:01;11.70;99.90
37310;DHT22;23195;47.744;7.358;2023-05-02T22:35:28;11.60;99.90
37310;DHT22;23195;47.744;7.358;2023-05-02T22:37:54;11.60;99.90
37310;DHT22;23195;47.744;7.358;2023-05-02T22:40:19;11.70;99.90
37310;DHT22;23195;47.744;7.358;2023-05-02T22:42:45;11.60;99.90
37310;DHT22;23195;47.744;7.358;2023-05-02T22:45:14;11.60;99.90
37310;DHT22;23195;47.744;7.358;2023-05-02T22:47:39;11.60;99.90
37310;DHT22;23195;47.744;7.358;2023-05-02T22:50:06;11.70;99.90
37310;DHT22;23195;47.744;7.358;2023-05-02T22:52:36;11.80;99.90
37310;DHT22;23195;47.744;7.358;2023-05-02T22:55:06;11.70;99.90
37310;DHT22;23195;47.744;7.358;2023-05-02T22:57:37;11.80;99.90
37310;DHT22;23195;47.744;7.358;2023-05-02T23:00:08;11.90;99.90
37310;DHT22;23195;47.744;7.358;2023-05-02T23:02:35;11.80;99.90
37310;DHT22;23195;47.744;7.358;2023-05-02T23:05:01;11.90;99.90
37310;DHT22;23195;47.744;7.358;2023-05-02T23:07:27;12.00;99.90
37310;DHT22;23195;47.744;7.358;2023-05-02T23:09:53;12.00;99.90
37310;DHT22;23195;47.744;7.358;2023-05-02T23:12:19;11.90;99.90
37310;DHT22;23195;47.744;7.358;2023-05-02T23:14:45;11.90;99.90
37310;DHT22;23195;47.744;7.358;2023-05-02T23:17:11;11.90;99.90
37310;DHT22;23195;47.744;7.358;2023-05-02T23:19:36;11.90;99.90
37310;DHT22;23195;47.744;7.358;2023-05-02T23:22:02;11.80;99.90
37310;DHT22;23195;47.744;7.358;2023-05-02T23:24:28;11.80;99.90
37310;DHT22;23195;47.744;7.358;2023-05-02T23:26:53;11.70;99.90
37310;DHT22;23195;47.744;7.358;2023-05-02T23:29:19;11.60;99.90
37310;DHT22;23195;47.744;7.358;2023-05-02T23:31:47;11.60;99.90
37310;DHT22;23195;47.744;7.358;2023-05-02T23:34:14;11.60;99.90
37310;DHT22;23195;47.744;7.358;2023-05-02T23:36:40;11.50;99.90
37310;DHT22;23195;47.744;7.358;2023-05-02T23:39:05;11.40;99.90
37310;DHT22;23195;47.744;7.358;2023-05-02T23:41:31;11.40;99.90
37310;DHT22;23195;47.744;7.358;2023-05-02T23:43:57;11.40;99.90
37310;DHT22;23195;47.744;7.358;2023-05-02T23:46:23;11.30;99.90
37310;DHT22;23195;47.744;7.358;2023-05-02T23:48:52;11.20;99.90
37310;DHT22;23195;47.744;7.358;2023-05-02T23:51:18;11.10;99.90
37310;DHT22;23195;47.744;7.358;2023-05-02T23:53:44;11.10;99.90
37310;DHT22;23195;47.744;7.358;2023-05-02T23:56:09;11.20;99.90
37310;DHT22;23195;47.744;7.358;2023-05-02T23:58:35;11.10;99.90
